TimeCST,TemperatureF,Dew PointF,Humidity,Sea Level PressureIn,VisibilityMPH,Wind Direction,Wind SpeedMPH,Gust SpeedMPH,PrecipitationIn,Events,Conditions,WindDirDegrees,DateUTC
12:40 AM,33.8,26.6,75,30.24,9.0,North,6.9,-,N/A,,Overcast,10,2012-11-05 06:40:00
12:53 AM,33.1,27.0,78,30.27,9.0,North,6.9,-,N/A,,Overcast,350,2012-11-05 06:53:00
1:53 AM,33.1,27.0,78,30.26,9.0,North,8.1,-,0.00,,Overcast,10,2012-11-05 07:53:00
2:24 AM,33.8,26.6,75,30.24,8.0,NNE,6.9,-,0.00,,Overcast,20,2012-11-05 08:24:00
2:48 AM,33.8,26.6,75,30.24,10.0,NNE,9.2,-,0.00,,Overcast,30,2012-11-05 08:48:00
2:53 AM,33.8,26.6,75,30.24,10.0,NNE,10.4,-,N/A,,Overcast,30,2012-11-05 08:53:00
3:31 AM,33.8,26.6,75,30.24,10.0,NNE,10.4,-,N/A,,Overcast,20,2012-11-05 09:31:00
3:53 AM,33.1,25.0,72,30.27,10.0,NNE,9.2,-,N/A,,Overcast,30,2012-11-05 09:53:00
4:53 AM,32.0,25.0,75,30.27,10.0,North,9.2,-,N/A,,Overcast,360,2012-11-05 10:53:00
5:18 AM,32.0,24.8,75,30.24,10.0,North,9.2,-,N/A,,Mostly Cloudy,360,2012-11-05 11:18:00
5:53 AM,30.9,24.1,76,30.27,10.0,North,10.4,-,N/A,,Overcast,10,2012-11-05 11:53:00
6:53 AM,32.0,24.1,73,30.27,10.0,North,8.1,-,N/A,,Overcast,350,2012-11-05 12:53:00
7:53 AM,33.1,25.0,72,30.28,10.0,North,8.1,-,N/A,,Overcast,10,2012-11-05 13:53:00
8:53 AM,35.1,25.0,67,30.29,10.0,NW,5.8,-,N/A,,Overcast,320,2012-11-05 14:53:00
9:46 AM,35.6,24.8,65,30.26,10.0,NNE,8.1,-,N/A,,Overcast,30,2012-11-05 15:46:00
9:53 AM,36.0,26.1,67,30.29,10.0,NE,9.2,-,N/A,,Overcast,50,2012-11-05 15:53:00
10:53 AM,37.0,26.1,65,30.28,10.0,NE,4.6,-,N/A,,Overcast,50,2012-11-05 16:53:00
11:53 AM,37.9,26.1,62,30.27,10.0,ENE,4.6,-,N/A,,Overcast,60,2012-11-05 17:53:00
12:53 PM,37.9,26.1,62,30.24,10.0,East,4.6,-,N/A,,Overcast,100,2012-11-05 18:53:00
1:53 PM,39.0,25.0,57,30.23,10.0,Calm,Calm,-,N/A,,Overcast,0,2012-11-05 19:53:00
2:53 PM,37.9,27.0,65,30.22,10.0,ENE,4.6,-,N/A,,Overcast,70,2012-11-05 20:53:00
3:53 PM,37.0,26.1,65,30.21,10.0,East,3.5,-,N/A,,Mostly Cloudy,90,2012-11-05 21:53:00
4:53 PM,34.0,26.1,73,30.21,10.0,East,3.5,-,N/A,,Overcast,80,2012-11-05 22:53:00
5:53 PM,33.1,25.0,72,30.21,10.0,Calm,Calm,-,N/A,,Clear,0,2012-11-05 23:53:00
6:53 PM,28.9,26.1,89,30.20,10.0,Calm,Calm,-,N/A,,Clear,0,2012-11-06 00:53:00
7:53 PM,28.0,25.0,88,30.18,10.0,Calm,Calm,-,N/A,,Clear,0,2012-11-06 01:53:00
8:53 PM,26.1,24.1,92,30.18,9.0,Calm,Calm,-,N/A,,Clear,0,2012-11-06 02:53:00
9:53 PM,26.1,23.0,88,30.16,8.0,Calm,Calm,-,N/A,,Clear,0,2012-11-06 03:53:00
10:53 PM,26.1,21.9,84,30.14,8.0,Calm,Calm,-,N/A,,Mostly Cloudy,0,2012-11-06 04:53:00
11:53 PM,26.1,21.9,84,30.12,7.0,Calm,Calm,-,N/A,,Scattered Clouds,0,2012-11-06 05:53:00